Time;durP1;ratioP1;P1;durP2;ratioP2;P2;SDS_P1;SDS_P2;PMS_P1;PMS_P2;Temp;Humidity;BMP_temperature;BMP_pressure;BME280_temperature;BME280_humidity;BME280_pressure;Samples;Min_cycle;Max_cycle;Signal;HPM_P1;HPM_P2
2021/10/12 00:02:11;;;;;;;10.93;5.18;;;;;;;;;;5073555;28;20099;-56
2021/10/12 00:04:38;;;;;;;9.15;4.45;;;;;;;;;;5073812;28;20027;-58
2021/10/12 00:07:04;;;;;;;4.57;1.88;;;;;;;;;;5074075;28;20028;-57
2021/10/12 00:09:29;;;;;;;9.75;4.88;;;;;;;;;;5073835;28;20029;-54
2021/10/12 00:11:55;;;;;;;12.60;5.70;;;;;;;;;;5073677;28;20028;-54
2021/10/12 00:14:20;;;;;;;8.38;4.43;;;;;;;;;;5072562;28;20028;-55
2021/10/12 00:16:45;;;;;;;9.48;4.93;;;;;;;;;;5072671;28;20035;-56
2021/10/12 00:19:10;;;;;;;12.10;5.07;;;;;;;;;;5073694;28;20218;-56
2021/10/12 00:21:36;;;;;;;12.05;5.10;;;;;;;;;;5072926;28;20465;-56
2021/10/12 00:24:03;;;;;;;9.80;3.75;;;;;;;;;;5073130;28;20127;-54
2021/10/12 00:26:28;;;;;;;10.15;5.10;;;;;;;;;;5069751;28;20395;-55
2021/10/12 00:28:53;;;;;;;12.55;5.10;;;;;;;;;;5071655;28;20027;-56
2021/10/12 00:31:18;;;;;;;8.15;2.95;;;;;;;;;;5073828;28;20220;-55
2021/10/12 00:33:44;;;;;;;11.15;5.18;;;;;;;;;;5073270;28;20500;-57
2021/10/12 00:36:09;;;;;;;11.23;4.60;;;;;;;;;;5073025;28;20946;-56
2021/10/12 00:38:34;;;;;;;7.95;3.83;;;;;;;;;;5073563;28;20028;-56
2021/10/12 00:41:00;;;;;;;9.80;3.53;;;;;;;;;;5073554;28;20134;-55
2021/10/12 00:43:27;;;;;;;13.43;4.18;;;;;;;;;;5068871;28;20101;-56
2021/10/12 00:45:53;;;;;;;8.45;4.80;;;;;;;;;;5071786;28;20024;-56
2021/10/12 00:48:18;;;;;;;9.73;3.78;;;;;;;;;;5074009;28;20027;-56
2021/10/12 00:50:44;;;;;;;8.90;4.32;;;;;;;;;;5073582;28;20376;-55
2021/10/12 00:53:09;;;;;;;9.90;4.15;;;;;;;;;;5072873;28;20016;-57
2021/10/12 00:55:34;;;;;;;3.70;2.28;;;;;;;;;;5070081;28;20082;-57
2021/10/12 00:57:59;;;;;;;12.27;4.68;;;;;;;;;;5072279;28;20112;-56
2021/10/12 01:00:25;;;;;;;9.25;4.20;;;;;;;;;;5072811;28;20013;-55
2021/10/12 01:02:50;;;;;;;11.93;4.90;;;;;;;;;;5073460;28;20021;-56
2021/10/12 01:05:15;;;;;;;9.07;5.22;;;;;;;;;;5072689;28;20021;-56
2021/10/12 01:07:40;;;;;;;11.32;4.93;;;;;;;;;;5072516;28;20093;-54
2021/10/12 01:10:07;;;;;;;10.73;5.45;;;;;;;;;;5073336;28;20484;-56
2021/10/12 01:12:32;;;;;;;12.10;5.28;;;;;;;;;;5071971;28;20058;-57
2021/10/12 01:14:57;;;;;;;8.32;5.03;;;;;;;;;;5076200;28;20031;-56
2021/10/12 01:17:23;;;;;;;10.77;4.97;;;;;;;;;;5081955;28;20028;-56
2021/10/12 01:19:48;;;;;;;10.65;4.53;;;;;;;;;;5073082;28;20036;-56
2021/10/12 01:22:13;;;;;;;10.15;4.25;;;;;;;;;;5072819;28;20016;-54
2021/10/12 01:24:39;;;;;;;7.88;3.15;;;;;;;;;;5070967;28;20067;-55
2021/10/12 01:27:04;;;;;;;10.85;5.22;;;;;;;;;;5070061;28;20039;-55
2021/10/12 01:29:29;;;;;;;8.93;3.42;;;;;;;;;;5071041;28;20023;-54
2021/10/12 01:31:54;;;;;;;12.52;5.38;;;;;;;;;;5072785;28;20008;-57
2021/10/12 01:34:20;;;;;;;7.95;3.88;;;;;;;;;;5071523;28;20012;-56
2021/10/12 01:36:46;;;;;;;7.53;4.35;;;;;;;;;;5072175;28;20476;-56
2021/10/12 01:39:12;;;;;;;7.43;3.75;;;;;;;;;;5072313;28;20034;-57
2021/10/12 01:41:37;;;;;;;6.20;2.55;;;;;;;;;;5072923;28;20048;-56
2021/10/12 01:44:02;;;;;;;8.15;4.07;;;;;;;;;;5087514;28;20480;-56
2021/10/12 01:46:27;;;;;;;6.18;2.38;;;;;;;;;;5070774;28;20093;-54
2021/10/12 01:48:53;;;;;;;11.23;5.03;;;;;;;;;;5072422;28;20472;-56
2021/10/12 01:51:19;;;;;;;6.78;3.50;;;;;;;;;;5071920;28;20016;-55
2021/10/12 01:53:44;;;;;;;8.88;3.50;;;;;;;;;;5071518;28;20161;-56
2021/10/12 01:56:09;;;;;;;5.63;3.40;;;;;;;;;;5068103;28;20083;-55
2021/10/12 01:58:35;;;;;;;9.43;3.40;;;;;;;;;;5070124;28;20040;-55
2021/10/12 02:01:00;;;;;;;9.57;5.10;;;;;;;;;;5071047;28;20028;-56
2021/10/12 02:03:25;;;;;;;9.75;4.35;;;;;;;;;;5071972;28;20499;-56
2021/10/12 02:05:50;;;;;;;9.65;4.68;;;;;;;;;;5071298;28;20106;-56
2021/10/12 02:08:16;;;;;;;8.60;4.80;;;;;;;;;;5069907;28;20081;-55
2021/10/12 02:10:41;;;;;;;11.00;4.95;;;;;;;;;;5072254;28;20485;-56
2021/10/12 02:13:06;;;;;;;8.07;3.90;;;;;;;;;;5070863;28;20034;-52
2021/10/12 02:15:31;;;;;;;5.80;3.40;;;;;;;;;;5070228;28;20473;-56
2021/10/12 02:17:57;;;;;;;7.15;4.47;;;;;;;;;;5071499;28;20473;-56
2021/10/12 02:20:22;;;;;;;9.20;3.60;;;;;;;;;;5072063;28;20033;-56
2021/10/12 02:22:47;;;;;;;7.78;3.17;;;;;;;;;;5071520;28;20366;-56
2021/10/12 02:25:12;;;;;;;7.53;3.30;;;;;;;;;;5068565;28;20060;-55
2021/10/12 02:27:38;;;;;;;6.40;3.20;;;;;;;;;;5069961;28;20034;-56
2021/10/12 02:30:04;;;;;;;8.85;3.70;;;;;;;;;;5071477;28;20021;-56
2021/10/12 02:32:29;;;;;;;6.50;2.92;;;;;;;;;;5072072;28;20036;-56
2021/10/12 02:34:55;;;;;;;5.30;2.85;;;;;;;;;;5071612;28;20024;-56
2021/10/12 02:37:20;;;;;;;8.25;2.42;;;;;;;;;;5071370;28;20047;-58
2021/10/12 02:39:45;;;;;;;6.63;1.92;;;;;;;;;;5086732;28;20040;-57
2021/10/12 02:42:10;;;;;;;7.82;2.38;;;;;;;;;;5068292;28;20406;-57
2021/10/12 02:44:36;;;;;;;6.95;1.25;;;;;;;;;;5069954;28;20067;-57
2021/10/12 02:47:01;;;;;;;4.05;2.33;;;;;;;;;;5071546;28;20040;-56
2021/10/12 02:49:26;;;;;;;4.00;2.85;;;;;;;;;;5071313;28;20488;-56
2021/10/12 02:51:52;;;;;;;10.15;3.40;;;;;;;;;;5070876;28;20476;-57
2021/10/12 02:54:17;;;;;;;6.65;3.17;;;;;;;;;;5071155;28;20029;-57
2021/10/12 02:56:42;;;;;;;7.22;3.40;;;;;;;;;;5068018;28;20033;-57
2021/10/12 02:59:07;;;;;;;7.50;3.25;;;;;;;;;;5069560;28;20017;-57
2021/10/12 03:01:32;;;;;;;6.63;3.30;;;;;;;;;;5071255;28;20025;-57
2021/10/12 03:03:58;;;;;;;6.97;3.45;;;;;;;;;;5071134;28;20271;-57
2021/10/12 03:06:23;;;;;;;7.75;3.15;;;;;;;;;;5070612;28;20051;-58
2021/10/12 03:08:48;;;;;;;6.30;3.60;;;;;;;;;;5071906;28;20531;-57
2021/10/12 03:11:14;;;;;;;8.45;4.50;;;;;;;;;;5075419;28;20545;-57
2021/10/12 03:13:39;;;;;;;7.50;4.15;;;;;;;;;;5064514;28;20021;-55
2021/10/12 03:16:04;;;;;;;10.80;4.60;;;;;;;;;;5071594;28;20040;-56
2021/10/12 03:18:31;;;;;;;8.68;4.10;;;;;;;;;;5071179;28;20025;-57
2021/10/12 03:20:56;;;;;;;9.25;3.90;;;;;;;;;;5070651;28;20048;-57
2021/10/12 03:23:22;;;;;;;7.18;3.88;;;;;;;;;;5070700;28;20511;-56
2021/10/12 03:25:47;;;;;;;7.15;3.88;;;;;;;;;;5070386;28;20048;-57
2021/10/12 03:28:12;;;;;;;8.82;3.92;;;;;;;;;;5074217;28;20021;-57
2021/10/12 03:30:37;;;;;;;6.78;3.80;;;;;;;;;;5074337;28;20037;-56
2021/10/12 03:33:03;;;;;;;9.52;4.00;;;;;;;;;;5074421;28;20035;-57
2021/10/12 03:35:34;;;;;;;11.10;4.10;;;;;;;;;;5074376;28;20086;-56
2021/10/12 03:38:00;;;;;;;6.80;3.13;;;;;;;;;;5074271;28;20028;-56
2021/10/12 03:40:25;;;;;;;10.23;3.35;;;;;;;;;;5074975;28;20103;-57
2021/10/12 03:42:50;;;;;;;7.80;4.38;;;;;;;;;;5072041;28;20025;-56
2021/10/12 03:45:16;;;;;;;7.75;3.88;;;;;;;;;;5074800;28;20518;-57
2021/10/12 03:47:41;;;;;;;8.10;3.85;;;;;;;;;;5074374;28;20079;-55
2021/10/12 03:50:06;;;;;;;8.18;4.10;;;;;;;;;;5074597;28;20017;-56
2021/10/12 03:52:31;;;;;;;6.60;3.53;;;;;;;;;;5073170;28;20017;-56
2021/10/12 03:54:57;;;;;;;5.80;3.63;;;;;;;;;;5072424;28;20114;-55
2021/10/12 03:57:22;;;;;;;6.53;3.60;;;;;;;;;;5088537;28;20036;-56
2021/10/12 03:59:47;;;;;;;5.65;3.42;;;;;;;;;;5074043;28;20060;-57
2021/10/12 04:02:12;;;;;;;3.67;2.05;;;;;;;;;;5073959;28;20093;-54
2021/10/12 04:04:37;;;;;;;6.45;3.78;;;;;;;;;;5073825;28;20484;-56
2021/10/12 04:07:03;;;;;;;4.60;2.55;;;;;;;;;;5074021;28;20499;-55
2021/10/12 04:09:30;;;;;;;7.82;4.20;;;;;;;;;;5073940;28;20025;-57
2021/10/12 04:11:55;;;;;;;9.50;4.80;;;;;;;;;;5074594;28;20017;-56
2021/10/12 04:14:21;;;;;;;5.93;2.22;;;;;;;;;;5073036;28;20032;-55
2021/10/12 04:16:46;;;;;;;6.40;2.15;;;;;;;;;;5070534;28;20032;-57
2021/10/12 04:19:11;;;;;;;12.68;5.20;;;;;;;;;;5072542;28;20519;-57
2021/10/12 04:21:36;;;;;;;9.93;3.55;;;;;;;;;;5073171;28;20040;-56
2021/10/12 04:24:01;;;;;;;12.63;4.70;;;;;;;;;;5076917;28;20051;-57
2021/10/12 04:26:27;;;;;;;7.18;2.95;;;;;;;;;;5077468;28;20047;-57
2021/10/12 04:28:52;;;;;;;3.90;1.85;;;;;;;;;;5072956;28;20028;-56
2021/10/12 04:31:17;;;;;;;5.28;2.95;;;;;;;;;;5073981;28;20381;-57
2021/10/12 04:33:42;;;;;;;3.83;2.33;;;;;;;;;;5071630;28;20074;-54
2021/10/12 04:36:08;;;;;;;6.30;3.17;;;;;;;;;;5071894;28;20035;-56
2021/10/12 04:38:33;;;;;;;5.70;2.92;;;;;;;;;;5073387;28;20103;-56
2021/10/12 04:40:58;;;;;;;7.90;4.97;;;;;;;;;;5073836;28;20027;-56
2021/10/12 04:43:23;;;;;;;11.93;5.35;;;;;;;;;;5072984;28;20020;-57
2021/10/12 04:45:49;;;;;;;7.47;3.80;;;;;;;;;;5072035;28;20034;-56
2021/10/12 04:48:15;;;;;;;6.93;2.55;;;;;;;;;;5073436;28;20032;-56
2021/10/12 04:50:40;;;;;;;10.30;3.70;;;;;;;;;;5073166;28;20522;-52
2021/10/12 04:53:05;;;;;;;6.47;4.07;;;;;;;;;;5071338;28;20076;-56
2021/10/12 04:55:30;;;;;;;8.73;3.15;;;;;;;;;;5069043;28;20673;-57
2021/10/12 04:57:56;;;;;;;12.23;3.92;;;;;;;;;;5068047;28;20059;-57
2021/10/12 05:00:21;;;;;;;9.93;3.63;;;;;;;;;;5071826;28;20438;-56
2021/10/12 05:02:46;;;;;;;3.85;2.08;;;;;;;;;;5073202;28;20024;-57
2021/10/12 05:05:12;;;;;;;6.72;2.83;;;;;;;;;;5072997;28;20476;-55
2021/10/12 05:07:37;;;;;;;8.38;3.40;;;;;;;;;;5071988;28;20495;-56
2021/10/12 05:10:03;;;;;;;6.68;4.05;;;;;;;;;;5072514;28;20048;-56
2021/10/12 05:12:28;;;;;;;9.40;5.25;;;;;;;;;;5071295;28;20117;-58
2021/10/12 05:14:53;;;;;;;8.02;4.60;;;;;;;;;;5072417;28;20059;-57
2021/10/12 05:17:35;;;;;;;10.82;4.35;;;;;;;;;;5071817;28;20460;-57
2021/10/12 05:20:00;;;;;;;7.70;4.10;;;;;;;;;;5073131;28;20032;-56
2021/10/12 05:22:25;;;;;;;10.68;5.50;;;;;;;;;;5072153;28;20407;-56
2021/10/12 05:24:50;;;;;;;6.93;4.07;;;;;;;;;;5070859;28;20048;-58
2021/10/12 05:27:16;;;;;;;7.65;5.40;;;;;;;;;;5070170;28;20040;-56
2021/10/12 05:29:41;;;;;;;2.78;2.15;;;;;;;;;;5071524;28;20028;-56
2021/10/12 05:32:06;;;;;;;10.57;5.57;;;;;;;;;;5071752;28;20024;-56
2021/10/12 05:34:31;;;;;;;10.13;5.57;;;;;;;;;;5070865;28;20576;-51
2021/10/12 05:36:57;;;;;;;7.65;4.50;;;;;;;;;;5072503;28;20082;-57
2021/10/12 05:39:22;;;;;;;9.02;5.15;;;;;;;;;;5070159;28;20032;-55
2021/10/12 05:41:47;;;;;;;12.40;5.47;;;;;;;;;;5071537;28;20443;-57
2021/10/12 05:44:12;;;;;;;8.40;4.03;;;;;;;;;;5070900;28;20028;-57
2021/10/12 05:46:37;;;;;;;10.70;5.60;;;;;;;;;;5071442;28;20492;-56
2021/10/12 05:49:03;;;;;;;9.77;4.80;;;;;;;;;;5065316;28;20051;-57
2021/10/12 05:51:28;;;;;;;9.25;5.50;;;;;;;;;;5071396;28;20036;-58
2021/10/12 05:53:55;;;;;;;7.78;5.80;;;;;;;;;;5070984;28;20514;-58
2021/10/12 05:58:49;;;;;;;9.73;6.72;;;;;;;;;;5070376;28;21334;-57
2021/10/12 06:01:15;;;;;;;13.60;7.53;;;;;;;;;;5071038;28;21361;-55
2021/10/12 06:03:40;;;;;;;12.07;8.30;;;;;;;;;;5070921;28;20029;-57
2021/10/12 06:06:05;;;;;;;10.57;6.70;;;;;;;;;;5071429;28;20032;-54
2021/10/12 06:08:33;;;;;;;9.40;6.03;;;;;;;;;;5071611;28;20036;-56
2021/10/12 06:10:58;;;;;;;10.55;6.13;;;;;;;;;;5070887;28;20020;-56
2021/10/12 06:13:24;;;;;;;13.07;7.95;;;;;;;;;;5070243;28;20085;-57
2021/10/12 06:15:49;;;;;;;11.82;8.13;;;;;;;;;;5071563;28;20016;-57
2021/10/12 06:18:15;;;;;;;10.50;4.85;;;;;;;;;;5067861;28;20032;-57
2021/10/12 06:20:40;;;;;;;9.63;6.85;;;;;;;;;;5060935;28;20029;-56
2021/10/12 06:23:05;;;;;;;11.32;6.88;;;;;;;;;;5071002;28;20036;-57
2021/10/12 06:25:31;;;;;;;9.98;6.18;;;;;;;;;;5063797;28;20037;-57
2021/10/12 06:27:56;;;;;;;10.73;6.38;;;;;;;;;;5070697;28;20438;-56
2021/10/12 06:30:21;;;;;;;8.38;3.90;;;;;;;;;;5071181;28;20035;-58
2021/10/12 06:32:47;;;;;;;9.90;5.05;;;;;;;;;;5068610;28;20469;-57
2021/10/12 06:35:12;;;;;;;10.95;5.75;;;;;;;;;;5069215;28;20032;-58
2021/10/12 06:37:37;;;;;;;8.90;5.00;;;;;;;;;;5070055;28;20049;-57
2021/10/12 06:40:02;;;;;;;9.82;5.72;;;;;;;;;;5070703;28;20107;-57
2021/10/12 06:42:28;;;;;;;10.50;5.43;;;;;;;;;;5070921;28;20017;-56
2021/10/12 06:44:53;;;;;;;9.18;5.90;;;;;;;;;;5069732;28;20028;-57
2021/10/12 06:47:18;;;;;;;8.93;4.93;;;;;;;;;;5071147;28;20074;-53
2021/10/12 06:49:43;;;;;;;6.00;4.82;;;;;;;;;;5071458;28;20048;-56
2021/10/12 06:52:09;;;;;;;9.45;4.93;;;;;;;;;;5071228;28;20025;-54
2021/10/12 06:54:34;;;;;;;4.78;3.75;;;;;;;;;;5070487;28;20021;-52
2021/10/12 06:57:01;;;;;;;9.45;4.45;;;;;;;;;;5067455;28;20024;-56
2021/10/12 06:59:26;;;;;;;5.25;2.10;;;;;;;;;;5073367;28;20029;-56
2021/10/12 07:01:52;;;;;;;11.10;5.07;;;;;;;;;;5075457;28;20043;-54
2021/10/12 07:04:17;;;;;;;10.32;5.60;;;;;;;;;;5074611;28;20017;-54
2021/10/12 07:06:42;;;;;;;7.82;4.25;;;;;;;;;;5074612;28;20066;-56
2021/10/12 07:09:08;;;;;;;3.75;2.40;;;;;;;;;;5073437;28;20530;-55
2021/10/12 07:11:33;;;;;;;9.00;3.60;;;;;;;;;;5072939;28;20023;-58
2021/10/12 07:13:58;;;;;;;5.22;3.47;;;;;;;;;;5073190;28;20133;-57
2021/10/12 07:16:23;;;;;;;5.72;3.80;;;;;;;;;;5075176;28;20032;-55
2021/10/12 07:18:49;;;;;;;11.98;5.22;;;;;;;;;;5074924;28;20016;-57
2021/10/12 07:21:14;;;;;;;5.15;2.92;;;;;;;;;;5074952;28;20030;-55
2021/10/12 07:23:40;;;;;;;5.90;3.53;;;;;;;;;;5074005;28;20233;-58
2021/10/12 07:26:05;;;;;;;7.80;3.10;;;;;;;;;;5060584;28;20052;-58
2021/10/12 07:28:30;;;;;;;4.18;2.30;;;;;;;;;;5065903;28;20055;-58
2021/10/12 07:30:55;;;;;;;7.35;2.95;;;;;;;;;;5074431;28;20431;-57
2021/10/12 07:33:20;;;;;;;6.55;2.78;;;;;;;;;;5074157;28;20032;-57
2021/10/12 07:35:46;;;;;;;5.40;2.00;;;;;;;;;;5063235;28;20464;-57
2021/10/12 07:38:12;;;;;;;3.75;2.25;;;;;;;;;;5074155;28;20056;-52
2021/10/12 07:40:39;;;;;;;5.18;2.00;;;;;;;;;;5074429;28;20027;-55
2021/10/12 07:43:04;;;;;;;3.95;2.13;;;;;;;;;;5063281;28;20021;-54
2021/10/12 07:45:29;;;;;;;2.80;1.55;;;;;;;;;;5073163;28;20443;-52
2021/10/12 07:47:56;;;;;;;5.40;2.10;;;;;;;;;;5074113;28;20035;-53
2021/10/12 07:50:21;;;;;;;4.20;1.90;;;;;;;;;;5074642;28;20070;-52
2021/10/12 07:52:46;;;;;;;2.45;0.80;;;;;;;;;;5076230;28;20453;-50
2021/10/12 07:55:15;;;;;;;3.60;1.50;;;;;;;;;;5073718;28;20472;-52
2021/10/12 07:57:40;;;;;;;4.15;1.63;;;;;;;;;;5071839;28;20146;-55
2021/10/12 08:00:06;;;;;;;3.25;1.20;;;;;;;;;;5068710;28;20496;-53
2021/10/12 08:02:31;;;;;;;6.50;1.67;;;;;;;;;;5082431;28;20028;-51
2021/10/12 08:04:56;;;;;;;4.30;1.55;;;;;;;;;;5072822;28;20026;-54
2021/10/12 08:07:22;;;;;;;3.60;1.80;;;;;;;;;;5073223;28;20029;-54
2021/10/12 08:09:48;;;;;;;4.15;1.58;;;;;;;;;;5073133;28;20024;-53
2021/10/12 08:12:13;;;;;;;4.68;1.70;;;;;;;;;;5073201;28;20023;-52
2021/10/12 08:14:41;;;;;;;3.97;1.38;;;;;;;;;;5073174;28;20020;-55
2021/10/12 08:17:06;;;;;;;2.97;1.10;;;;;;;;;;5074047;28;20031;-54
2021/10/12 08:19:32;;;;;;;5.18;1.45;;;;;;;;;;5084748;28;20032;-51
2021/10/12 08:21:57;;;;;;;3.08;0.60;;;;;;;;;;5085288;28;20029;-55
2021/10/12 08:24:26;;;;;;;4.63;1.25;;;;;;;;;;5072880;28;20056;-54
2021/10/12 08:26:51;;;;;;;2.40;0.95;;;;;;;;;;5064802;28;20119;-54
2021/10/12 08:29:17;;;;;;;2.88;0.90;;;;;;;;;;5071874;28;20116;-53
2021/10/12 08:31:42;;;;;;;2.28;0.68;;;;;;;;;;5073463;28;20009;-52
2021/10/12 08:34:07;;;;;;;2.78;0.60;;;;;;;;;;5069191;28;20107;-55
2021/10/12 08:36:33;;;;;;;2.65;0.60;;;;;;;;;;5075207;28;20024;-55
2021/10/12 08:38:58;;;;;;;2.47;1.00;;;;;;;;;;5072766;28;20025;-56
2021/10/12 08:41:30;;;;;;;3.63;0.60;;;;;;;;;;5072741;28;20127;-51
2021/10/12 08:43:56;;;;;;;2.75;0.93;;;;;;;;;;5070425;28;20476;-53
2021/10/12 08:46:26;;;;;;;2.63;0.45;;;;;;;;;;5071963;28;20081;-50
2021/10/12 08:48:51;;;;;;;5.22;0.93;;;;;;;;;;5072601;28;20025;-52
2021/10/12 08:51:17;;;;;;;1.55;0.70;;;;;;;;;;5072462;28;20027;-54
2021/10/12 08:53:42;;;;;;;1.10;0.43;;;;;;;;;;5070989;28;20499;-52
2021/10/12 08:56:07;;;;;;;0.73;0.50;;;;;;;;;;5066315;28;20035;-52
2021/10/12 08:58:32;;;;;;;1.20;0.35;;;;;;;;;;5075581;28;20031;-55
2021/10/12 09:01:04;;;;;;;1.90;0.65;;;;;;;;;;5065616;28;20028;-54
2021/10/12 09:03:45;;;;;;;2.55;1.00;;;;;;;;;;5059384;28;20032;-54
2021/10/12 09:06:10;;;;;;;1.35;0.68;;;;;;;;;;5063253;28;20055;-54
2021/10/12 09:08:38;;;;;;;3.20;1.35;;;;;;;;;;5070193;28;20503;-52
2021/10/12 09:11:04;;;;;;;1.67;1.08;;;;;;;;;;5068623;28;20629;-52
2021/10/12 09:13:41;;;;;;;2.78;0.95;;;;;;;;;;5071649;28;20116;-55
2021/10/12 09:16:11;;;;;;;1.15;0.60;;;;;;;;;;5071246;28;20426;-55
2021/10/12 09:18:49;;;;;;;2.13;1.40;;;;;;;;;;5071801;28;20021;-54
2021/10/12 09:21:15;;;;;;;0.77;0.30;;;;;;;;;;5071266;28;20056;-49
2021/10/12 09:23:41;;;;;;;1.98;0.60;;;;;;;;;;5071038;28;20037;-55
2021/10/12 09:26:17;;;;;;;1.17;0.60;;;;;;;;;;5065351;28;20048;-53
2021/10/12 09:28:42;;;;;;;3.75;1.92;;;;;;;;;;5069841;28;20122;-52
2021/10/12 09:31:07;;;;;;;3.10;1.23;;;;;;;;;;5064346;28;20024;-53
2021/10/12 09:33:44;;;;;;;2.50;1.38;;;;;;;;;;5070940;28;20196;-54
2021/10/12 09:36:10;;;;;;;2.10;1.50;;;;;;;;;;5071152;28;20052;-55
2021/10/12 09:38:44;;;;;;;1.52;0.88;;;;;;;;;;5069434;28;20059;-54
2021/10/12 09:41:09;;;;;;;1.50;0.75;;;;;;;;;;5067398;28;20032;-55
2021/10/12 09:43:35;;;;;;;2.60;1.73;;;;;;;;;;5065698;28;20091;-50
2021/10/12 09:46:00;;;;;;;1.42;1.02;;;;;;;;;;5061293;28;20029;-50
2021/10/12 09:48:34;;;;;;;2.22;0.80;;;;;;;;;;5070387;28;20393;-55
2021/10/12 09:51:06;;;;;;;6.25;0.98;;;;;;;;;;5070630;28;20012;-55
2021/10/12 09:53:31;;;;;;;2.92;1.23;;;;;;;;;;5068695;28;20393;-54
2021/10/12 09:55:57;;;;;;;1.10;0.52;;;;;;;;;;5066285;28;20013;-52
2021/10/12 09:58:22;;;;;;;3.78;1.02;;;;;;;;;;5064611;28;20025;-55
2021/10/12 10:00:47;;;;;;;2.75;2.10;;;;;;;;;;5069114;28;20023;-57
2021/10/12 10:03:13;;;;;;;3.47;1.92;;;;;;;;;;5067331;28;20032;-54
2021/10/12 10:05:38;;;;;;;3.63;2.10;;;;;;;;;;5072049;28;20012;-55
2021/10/12 10:08:04;;;;;;;3.70;1.60;;;;;;;;;;5064558;28;20393;-56
2021/10/12 10:10:29;;;;;;;2.30;0.63;;;;;;;;;;5065764;28;20043;-55
2021/10/12 10:12:55;;;;;;;0.68;0.22;;;;;;;;;;5067338;28;20016;-54
2021/10/12 10:15:20;;;;;;;3.63;0.70;;;;;;;;;;5052932;28;20029;-54
2021/10/12 10:17:46;;;;;;;1.95;0.75;;;;;;;;;;5071294;28;20609;-55
2021/10/12 10:20:14;;;;;;;1.17;0.70;;;;;;;;;;5070517;28;20245;-55
2021/10/12 10:22:43;;;;;;;3.28;0.55;;;;;;;;;;5070278;28;20461;-52
2021/10/12 10:25:33;;;;;;;2.67;1.00;;;;;;;;;;5066774;28;20052;-54
2021/10/12 10:28:16;;;;;;;4.28;1.55;;;;;;;;;;5064098;28;20040;-56
2021/10/12 10:30:45;;;;;;;3.00;1.63;;;;;;;;;;5072377;28;20028;-52
2021/10/12 10:33:24;;;;;;;4.00;1.65;;;;;;;;;;5070194;28;20031;-54
2021/10/12 10:35:55;;;;;;;4.30;1.67;;;;;;;;;;5070528;28;20052;-56
2021/10/12 10:38:20;;;;;;;4.65;1.23;;;;;;;;;;5070124;28;20536;-55
2021/10/12 10:40:47;;;;;;;3.35;1.80;;;;;;;;;;5068967;28;20128;-53
2021/10/12 10:43:12;;;;;;;3.28;1.60;;;;;;;;;;5069992;28;20396;-53
2021/10/12 10:45:42;;;;;;;3.92;1.70;;;;;;;;;;5069521;28;20028;-55
2021/10/12 10:48:09;;;;;;;5.63;1.70;;;;;;;;;;5070300;28;20031;-55
2021/10/12 10:50:34;;;;;;;2.85;0.80;;;;;;;;;;5069670;28;20024;-53
2021/10/12 10:53:04;;;;;;;2.38;1.27;;;;;;;;;;5071065;28;20017;-51
2021/10/12 10:55:33;;;;;;;2.47;1.02;;;;;;;;;;5064421;28;20044;-55
2021/10/12 10:58:13;;;;;;;5.00;1.10;;;;;;;;;;5069212;28;20027;-54
2021/10/12 11:00:41;;;;;;;2.42;1.45;;;;;;;;;;5061881;28;20418;-54
2021/10/12 11:03:07;;;;;;;2.67;1.92;;;;;;;;;;5070379;28;20107;-54
2021/10/12 11:05:32;;;;;;;3.72;1.40;;;;;;;;;;5069604;28;20363;-54
2021/10/12 11:08:12;;;;;;;6.00;1.50;;;;;;;;;;5069618;28;20026;-56
2021/10/12 11:10:37;;;;;;;1.33;0.90;;;;;;;;;;5067115;28;20016;-55
2021/10/12 11:13:03;;;;;;;4.00;1.42;;;;;;;;;;5069248;28;20435;-53
2021/10/12 11:15:28;;;;;;;2.45;1.35;;;;;;;;;;5066468;28;20535;-55
2021/10/12 11:18:22;;;;;;;2.72;1.00;;;;;;;;;;5070145;28;20067;-55
2021/10/12 11:20:51;;;;;;;3.83;1.50;;;;;;;;;;5066296;28;20063;-55
2021/10/12 11:23:23;;;;;;;2.78;0.80;;;;;;;;;;5068862;28;20116;-53
2021/10/12 11:25:53;;;;;;;2.08;0.50;;;;;;;;;;5063858;28;20048;-56
2021/10/12 11:28:22;;;;;;;1.52;0.52;;;;;;;;;;5069615;28;20020;-53
2021/10/12 11:30:47;;;;;;;1.00;0.20;;;;;;;;;;5070397;28;20031;-53
2021/10/12 11:33:12;;;;;;;0.85;0.40;;;;;;;;;;5071189;28;20452;-55
2021/10/12 11:35:38;;;;;;;1.75;0.32;;;;;;;;;;5070293;28;20130;-55
2021/10/12 11:38:05;;;;;;;1.05;0.20;;;;;;;;;;5070243;28;20507;-55
2021/10/12 11:40:31;;;;;;;1.67;0.30;;;;;;;;;;5070339;28;20473;-56
2021/10/12 11:42:58;;;;;;;1.45;0.40;;;;;;;;;;5070178;28;20035;-55
2021/10/12 11:45:24;;;;;;;1.00;0.20;;;;;;;;;;5069898;28;20028;-47
2021/10/12 11:47:49;;;;;;;1.55;0.30;;;;;;;;;;5072965;28;20112;-55
2021/10/12 11:50:15;;;;;;;2.45;0.47;;;;;;;;;;5071986;28;20013;-51
2021/10/12 11:52:41;;;;;;;0.47;0.20;;;;;;;;;;5073935;28;20028;-55
2021/10/12 11:55:07;;;;;;;1.60;0.30;;;;;;;;;;5069813;28;20028;-53
2021/10/12 11:57:32;;;;;;;1.05;0.20;;;;;;;;;;5070751;28;20032;-56
2021/10/12 11:59:58;;;;;;;0.63;0.20;;;;;;;;;;5073037;28;20027;-54
2021/10/12 12:02:23;;;;;;;1.27;0.40;;;;;;;;;;5073844;28;20012;-53
2021/10/12 12:04:50;;;;;;;0.43;0.10;;;;;;;;;;5073726;28;20021;-54
2021/10/12 12:07:16;;;;;;;0.55;0.10;;;;;;;;;;5074121;28;20060;-54
2021/10/12 12:09:45;;;;;;;0.30;0.13;;;;;;;;;;5071626;28;20129;-54
2021/10/12 12:12:10;;;;;;;1.55;0.20;;;;;;;;;;5073680;28;20461;-53
2021/10/12 12:14:36;;;;;;;0.95;0.10;;;;;;;;;;5072309;28;20112;-55
2021/10/12 12:17:20;;;;;;;1.05;0.20;;;;;;;;;;5073773;28;20117;-56
2021/10/12 12:19:49;;;;;;;0.93;0.27;;;;;;;;;;5071548;28;20028;-55
2021/10/12 12:22:16;;;;;;;2.35;0.45;;;;;;;;;;5067968;28;20028;-52
2021/10/12 12:24:55;;;;;;;1.00;0.20;;;;;;;;;;5072482;28;20052;-53
2021/10/12 12:27:20;;;;;;;0.15;0.00;;;;;;;;;;5066843;28;20033;-55
2021/10/12 12:29:56;;;;;;;1.58;0.20;;;;;;;;;;5072660;28;20380;-54
2021/10/12 12:32:21;;;;;;;1.95;0.30;;;;;;;;;;5073395;28;20143;-54
2021/10/12 12:34:55;;;;;;;0.73;0.15;;;;;;;;;;5062972;28;20104;-56
2021/10/12 12:37:23;;;;;;;1.85;0.30;;;;;;;;;;5061257;28;20114;-54
2021/10/12 12:39:49;;;;;;;1.00;0.28;;;;;;;;;;5073782;28;20056;-53
2021/10/12 12:42:32;;;;;;;1.23;0.85;;;;;;;;;;5072562;28;20097;-55
2021/10/12 12:45:09;;;;;;;1.05;0.40;;;;;;;;;;5071034;28;20024;-54
2021/10/12 12:47:34;;;;;;;0.63;0.40;;;;;;;;;;5072714;28;20476;-55
2021/10/12 12:50:07;;;;;;;0.25;0.10;;;;;;;;;;5072856;28;20032;-52
2021/10/12 12:52:32;;;;;;;2.15;0.40;;;;;;;;;;5071216;28;20035;-55
2021/10/12 12:54:57;;;;;;;3.83;0.63;;;;;;;;;;5071066;28;20024;-56
2021/10/12 12:57:23;;;;;;;3.30;0.65;;;;;;;;;;5069251;28;20090;-56
2021/10/12 13:00:00;;;;;;;3.28;0.88;;;;;;;;;;5071430;28;20021;-55
2021/10/12 13:02:26;;;;;;;4.57;0.50;;;;;;;;;;5072856;28;20079;-55
2021/10/12 13:04:51;;;;;;;1.85;0.82;;;;;;;;;;5063184;28;20044;-52
2021/10/12 13:07:17;;;;;;;0.93;0.50;;;;;;;;;;5070500;28;20103;-55
2021/10/12 13:09:42;;;;;;;1.58;0.60;;;;;;;;;;5072715;28;20044;-54
2021/10/12 13:12:08;;;;;;;1.90;0.93;;;;;;;;;;5072805;28;20016;-54
2021/10/12 13:14:33;;;;;;;1.50;0.70;;;;;;;;;;5070680;28;20025;-52
2021/10/12 13:17:01;;;;;;;1.85;0.80;;;;;;;;;;5063648;28;20112;-53
2021/10/12 13:19:26;;;;;;;2.03;0.90;;;;;;;;;;5070550;28;20020;-55
2021/10/12 13:21:52;;;;;;;1.88;0.73;;;;;;;;;;5071051;28;20384;-53
2021/10/12 13:24:17;;;;;;;1.88;0.80;;;;;;;;;;5071710;28;20085;-50
2021/10/12 13:26:42;;;;;;;1.13;0.68;;;;;;;;;;5066734;28;20199;-53
2021/10/12 13:29:08;;;;;;;3.33;0.88;;;;;;;;;;5071384;28;20546;-55
2021/10/12 13:31:36;;;;;;;1.50;0.30;;;;;;;;;;5071468;28;20067;-55
2021/10/12 13:34:02;;;;;;;0.10;0.00;;;;;;;;;;5071385;28;20027;-56
2021/10/12 13:36:28;;;;;;;0.68;0.10;;;;;;;;;;5071461;28;20365;-54
2021/10/12 13:38:53;;;;;;;0.30;0.00;;;;;;;;;;5072272;28;20085;-55
2021/10/12 13:41:19;;;;;;;0.65;0.10;;;;;;;;;;5071926;28;20035;-55
2021/10/12 13:43:44;;;;;;;0.88;0.10;;;;;;;;;;5070952;28;20024;-51
2021/10/12 13:46:10;;;;;;;0.10;0.10;;;;;;;;;;5070300;28;20027;-53
2021/10/12 13:48:36;;;;;;;0.10;0.08;;;;;;;;;;5072166;28;20020;-55
2021/10/12 13:51:05;;;;;;;0.40;0.10;;;;;;;;;;5071269;28;20021;-55
2021/10/12 13:53:30;;;;;;;0.30;0.20;;;;;;;;;;5071427;28;20024;-53
2021/10/12 13:55:56;;;;;;;0.77;0.20;;;;;;;;;;5063832;28;20017;-54
2021/10/12 13:58:21;;;;;;;0.57;0.20;;;;;;;;;;5070250;28;20021;-54
2021/10/12 14:00:46;;;;;;;1.55;0.52;;;;;;;;;;5068453;28;20020;-54
2021/10/12 14:03:13;;;;;;;3.28;0.40;;;;;;;;;;5074275;28;20094;-53
2021/10/12 14:05:38;;;;;;;2.08;0.47;;;;;;;;;;5068278;28;20507;-55
2021/10/12 14:08:04;;;;;;;0.43;0.30;;;;;;;;;;5068655;28;20123;-54
2021/10/12 14:10:30;;;;;;;1.25;0.30;;;;;;;;;;5071395;28;20425;-53
2021/10/12 14:12:55;;;;;;;0.70;0.22;;;;;;;;;;5069922;28;20099;-55
2021/10/12 14:15:20;;;;;;;0.98;0.10;;;;;;;;;;5069796;28;20060;-55
2021/10/12 14:17:45;;;;;;;1.67;0.20;;;;;;;;;;5070645;28;20528;-52
2021/10/12 14:20:11;;;;;;;0.73;0.30;;;;;;;;;;5071126;28;20456;-56
2021/10/12 14:22:37;;;;;;;1.13;0.10;;;;;;;;;;5069917;28;20372;-55
2021/10/12 14:25:02;;;;;;;0.73;0.20;;;;;;;;;;5066701;28;20096;-54
2021/10/12 14:27:29;;;;;;;0.52;0.10;;;;;;;;;;5071353;28;20127;-53
2021/10/12 14:29:59;;;;;;;0.60;0.10;;;;;;;;;;5069768;28;20115;-56
2021/10/12 14:32:25;;;;;;;0.52;0.20;;;;;;;;;;5069984;28;20029;-55
2021/10/12 14:34:50;;;;;;;2.72;0.20;;;;;;;;;;5069738;28;20029;-56
2021/10/12 14:37:15;;;;;;;0.40;0.10;;;;;;;;;;5070540;28;20028;-55
2021/10/12 14:39:41;;;;;;;1.42;0.22;;;;;;;;;;5075154;28;20115;-53